Terminal Aerodrome Forecast
Issued by NWS

Home | Current Version | Previous Version | Text Only | Print | Product List | Glossary Off
Versions: 1 2 3 4 5 6 7 8 9 10 11 12 13 14 15 16 17 18 19

464
FTUS43 KICT 170712 AAA
TAFCNU
TAF AMD
KCNU 170712Z 1707/1806 20005KT P6SM SCT004 BKN040
      TEMPO 1707/1709 4SM BR BKN004
     FM170900 VRB05KT P6SM SCT040 BKN150
     FM171000 28007KT P6SM SCT080
     FM180200 VRB05KT P6SM SKC=

USA.gov is the U.S. government's official web portal to all federal, state and local government web resources and services.